sensor_id;sensor_type;location;lat;lon;timestamp;pressure;altitude;pressure_sealevel;temperature;humidity
51603;BME280;37954;51.980;5.850;2023-02-13T00:01:28;103436.59;;;8.65;74.50
51603;BME280;37954;51.980;5.850;2023-02-13T00:05:40;103442.94;;;8.64;74.55
51603;BME280;37954;51.980;5.850;2023-02-13T00:09:52;103423.88;;;8.58;74.65
51603;BME280;37954;51.980;5.850;2023-02-13T00:14:03;103425.88;;;8.56;74.62
51603;BME280;37954;51.980;5.850;2023-02-13T00:18:15;103422.19;;;8.57;74.74
51603;BME280;37954;51.980;5.850;2023-02-13T00:22:26;103403.47;;;8.47;74.88
51603;BME280;37954;51.980;5.850;2023-02-13T00:26:38;103408.66;;;8.49;74.85
51603;BME280;37954;51.980;5.850;2023-02-13T00:30:50;103405.97;;;8.49;75.17
51603;BME280;37954;51.980;5.850;2023-02-13T00:35:03;103404.59;;;8.45;75.00
51603;BME280;37954;51.980;5.850;2023-02-13T00:39:15;103398.53;;;8.43;74.89
51603;BME280;37954;51.980;5.850;2023-02-13T00:43:26;103399.38;;;8.43;75.03
51603;BME280;37954;51.980;5.850;2023-02-13T00:47:40;103415.19;;;8.46;75.12
51603;BME280;37954;51.980;5.850;2023-02-13T00:51:51;103420.09;;;8.51;75.04
51603;BME280;37954;51.980;5.850;2023-02-13T00:56:05;103399.09;;;8.36;75.31
51603;BME280;37954;51.980;5.850;2023-02-13T01:00:19;103407.00;;;8.48;75.26
51603;BME280;37954;51.980;5.850;2023-02-13T01:04:31;103389.66;;;8.42;74.92
51603;BME280;37954;51.980;5.850;2023-02-13T01:08:43;103405.59;;;8.44;75.06
51603;BME280;37954;51.980;5.850;2023-02-13T01:12:54;103399.53;;;8.42;75.09
51603;BME280;37954;51.980;5.850;2023-02-13T01:17:06;103402.06;;;8.43;75.19
51603;BME280;37954;51.980;5.850;2023-02-13T01:21:20;103418.38;;;8.50;75.18
51603;BME280;37954;51.980;5.850;2023-02-13T01:25:42;103404.47;;;8.46;75.41
51603;BME280;37954;51.980;5.850;2023-02-13T01:29:54;103409.69;;;8.48;75.15
51603;BME280;37954;51.980;5.850;2023-02-13T01:34:07;103391.22;;;8.45;75.34
51603;BME280;37954;51.980;5.850;2023-02-13T01:38:19;103402.78;;;8.45;75.46
51603;BME280;37954;51.980;5.850;2023-02-13T01:42:33;103393.03;;;8.44;75.73
51603;BME280;37954;51.980;5.850;2023-02-13T01:46:45;103383.16;;;8.45;75.75
51603;BME280;37954;51.980;5.850;2023-02-13T01:51:03;103385.00;;;8.44;75.57
51603;BME280;37954;51.980;5.850;2023-02-13T01:55:18;103380.63;;;8.43;75.50
51603;BME280;37954;51.980;5.850;2023-02-13T01:59:36;103391.91;;;8.47;75.68
51603;BME280;37954;51.980;5.850;2023-02-13T02:03:59;103389.91;;;8.49;75.90
51603;BME280;37954;51.980;5.850;2023-02-13T02:08:17;103387.94;;;8.51;76.10
51603;BME280;37954;51.980;5.850;2023-02-13T02:16:55;103371.75;;;8.43;76.20
51603;BME280;37954;51.980;5.850;2023-02-13T02:30:15;103362.72;;;8.44;76.20
51603;BME280;37954;51.980;5.850;2023-02-13T02:39:28;103373.03;;;8.48;76.80
51603;BME280;37954;51.980;5.850;2023-02-13T02:43:54;103380.47;;;8.54;76.50
51603;BME280;37954;51.980;5.850;2023-02-13T02:48:47;103368.47;;;8.49;76.65
51603;BME280;37954;51.980;5.850;2023-02-13T02:57:28;103372.47;;;8.45;76.92
51603;BME280;37954;51.980;5.850;2023-02-13T03:02:02;103360.75;;;8.46;76.97
51603;BME280;37954;51.980;5.850;2023-02-13T03:06:39;103377.06;;;8.52;76.68
51603;BME280;37954;51.980;5.850;2023-02-13T03:10:53;103364.28;;;8.46;76.96
51603;BME280;37954;51.980;5.850;2023-02-13T03:15:26;103362.59;;;8.45;77.05
51603;BME280;37954;51.980;5.850;2023-02-13T03:24:42;103366.97;;;8.46;77.27
51603;BME280;37954;51.980;5.850;2023-02-13T03:29:03;103367.09;;;8.45;77.33
51603;BME280;37954;51.980;5.850;2023-02-13T03:38:15;103372.00;;;8.49;77.29
51603;BME280;37954;51.980;5.850;2023-02-13T03:42:34;103383.00;;;8.56;77.41
51603;BME280;37954;51.980;5.850;2023-02-13T03:46:49;103381.72;;;8.50;77.52
51603;BME280;37954;51.980;5.850;2023-02-13T03:51:05;103380.47;;;8.54;77.57
51603;BME280;37954;51.980;5.850;2023-02-13T03:55:29;103367.50;;;8.50;77.67
51603;BME280;37954;51.980;5.850;2023-02-13T04:00:04;103374.97;;;8.56;77.46
51603;BME280;37954;51.980;5.850;2023-02-13T04:04:45;103378.06;;;8.51;77.47
51603;BME280;37954;51.980;5.850;2023-02-13T04:09:00;103372.84;;;8.50;77.48
51603;BME280;37954;51.980;5.850;2023-02-13T04:13:17;103372.00;;;8.49;77.93
51603;BME280;37954;51.980;5.850;2023-02-13T04:17:39;103387.22;;;8.49;77.75
51603;BME280;37954;51.980;5.850;2023-02-13T04:21:56;103384.97;;;8.54;77.98
51603;BME280;37954;51.980;5.850;2023-02-13T04:26:15;103380.34;;;8.46;78.04
51603;BME280;37954;51.980;5.850;2023-02-13T04:30:28;103381.72;;;8.50;78.02
51603;BME280;37954;51.980;5.850;2023-02-13T04:34:39;103385.97;;;8.53;78.16
51603;BME280;37954;51.980;5.850;2023-02-13T04:38:51;103366.13;;;8.46;77.99
51603;BME280;37954;51.980;5.850;2023-02-13T04:43:03;103379.66;;;8.44;78.32
51603;BME280;37954;51.980;5.850;2023-02-13T04:47:14;103372.47;;;8.45;78.41
51603;BME280;37954;51.980;5.850;2023-02-13T04:51:26;103370.78;;;8.44;78.81
51603;BME280;37954;51.980;5.850;2023-02-13T04:55:38;103383.56;;;8.50;78.54
51603;BME280;37954;51.980;5.850;2023-02-13T04:59:49;103369.91;;;8.43;78.40
51603;BME280;37954;51.980;5.850;2023-02-13T05:04:01;103358.63;;;8.40;78.59
51603;BME280;37954;51.980;5.850;2023-02-13T05:08:12;103363.16;;;8.39;78.55
51603;BME280;37954;51.980;5.850;2023-02-13T05:12:24;103360.63;;;8.37;78.84
51603;BME280;37954;51.980;5.850;2023-02-13T05:16:36;103368.50;;;8.39;78.86
51603;BME280;37954;51.980;5.850;2023-02-13T05:20:48;103349.75;;;8.29;79.30
51603;BME280;37954;51.980;5.850;2023-02-13T05:25:19;103347.94;;;8.30;79.05
51603;BME280;37954;51.980;5.850;2023-02-13T05:29:31;103350.44;;;8.31;78.95
51603;BME280;37954;51.980;5.850;2023-02-13T05:33:43;103344.13;;;8.32;79.35
51603;BME280;37954;51.980;5.850;2023-02-13T05:37:54;103335.25;;;8.32;79.21
51603;BME280;37954;51.980;5.850;2023-02-13T05:42:06;103336.94;;;8.33;79.27
51603;BME280;37954;51.980;5.850;2023-02-13T05:46:17;103326.78;;;8.27;79.20
51603;BME280;37954;51.980;5.850;2023-02-13T05:50:29;103338.47;;;8.35;79.56
51603;BME280;37954;51.980;5.850;2023-02-13T05:54:40;103336.50;;;8.37;79.57
51603;BME280;37954;51.980;5.850;2023-02-13T05:58:54;103352.00;;;8.44;79.61
51603;BME280;37954;51.980;5.850;2023-02-13T06:03:06;103342.00;;;8.36;79.51
51603;BME280;37954;51.980;5.850;2023-02-13T06:07:17;103353.00;;;8.43;79.38
51603;BME280;37954;51.980;5.850;2023-02-13T06:11:29;103341.31;;;8.34;79.31
51603;BME280;37954;51.980;5.850;2023-02-13T06:15:41;103339.63;;;8.33;79.48
51603;BME280;37954;51.980;5.850;2023-02-13T06:19:52;103336.50;;;8.28;79.64
51603;BME280;37954;51.980;5.850;2023-02-13T06:24:04;103333.97;;;8.26;79.62
51603;BME280;37954;51.980;5.850;2023-02-13T06:28:17;103346.81;;;8.32;79.81
51603;BME280;37954;51.980;5.850;2023-02-13T06:32:28;103342.00;;;8.26;79.97
51603;BME280;37954;51.980;5.850;2023-02-13T06:36:40;103339.19;;;8.28;79.85
51603;BME280;37954;51.980;5.850;2023-02-13T06:40:58;103359.22;;;8.33;80.17
51603;BME280;37954;51.980;5.850;2023-02-13T06:45:12;103354.69;;;8.34;80.23
51603;BME280;37954;51.980;5.850;2023-02-13T06:49:23;103344.00;;;8.24;80.17
51603;BME280;37954;51.980;5.850;2023-02-13T06:53:35;103366.13;;;8.36;80.16
51603;BME280;37954;51.980;5.850;2023-02-13T06:57:47;103354.28;;;8.29;80.09
51603;BME280;37954;51.980;5.850;2023-02-13T07:01:58;103353.56;;;8.27;80.34
51603;BME280;37954;51.980;5.850;2023-02-13T07:06:10;103376.53;;;8.39;80.42
51603;BME280;37954;51.980;5.850;2023-02-13T07:10:26;103372.59;;;8.33;80.65
51603;BME280;37954;51.980;5.850;2023-02-13T07:14:39;103375.28;;;8.33;80.93
51603;BME280;37954;51.980;5.850;2023-02-13T07:18:51;103390.50;;;8.43;80.63
51603;BME280;37954;51.980;5.850;2023-02-13T07:23:04;103380.50;;;8.45;81.02
51603;BME280;37954;51.980;5.850;2023-02-13T07:27:16;103380.50;;;8.45;80.77
51603;BME280;37954;51.980;5.850;2023-02-13T07:31:27;103375.13;;;8.45;80.73
51603;BME280;37954;51.980;5.850;2023-02-13T07:35:45;103372.47;;;8.45;80.86
51603;BME280;37954;51.980;5.850;2023-02-13T07:39:57;103389.75;;;8.50;80.88
51603;BME280;37954;51.980;5.850;2023-02-13T07:44:08;103399.06;;;8.56;81.08
51603;BME280;37954;51.980;5.850;2023-02-13T07:48:21;103403.72;;;8.63;80.79
51603;BME280;37954;51.980;5.850;2023-02-13T07:52:33;103382.56;;;8.60;80.71
51603;BME280;37954;51.980;5.850;2023-02-13T07:56:44;103395.94;;;8.70;80.91
51603;BME280;37954;51.980;5.850;2023-02-13T08:00:56;103399.72;;;8.77;80.85
51603;BME280;37954;51.980;5.850;2023-02-13T08:05:08;103395.63;;;8.83;81.00
51603;BME280;37954;51.980;5.850;2023-02-13T08:09:20;103400.09;;;8.92;80.76
51603;BME280;37954;51.980;5.850;2023-02-13T08:13:51;103386.63;;;9.01;80.57
51603;BME280;37954;51.980;5.850;2023-02-13T08:18:03;103395.16;;;9.24;80.49
51603;BME280;37954;51.980;5.850;2023-02-13T08:22:14;103401.94;;;9.46;80.19
51603;BME280;37954;51.980;5.850;2023-02-13T08:26:26;103398.75;;;9.60;79.75
51603;BME280;37954;51.980;5.850;2023-02-13T08:30:38;103391.72;;;9.77;79.46
51603;BME280;37954;51.980;5.850;2023-02-13T08:34:50;103410.75;;;10.01;78.72
51603;BME280;37954;51.980;5.850;2023-02-13T08:39:01;103406.22;;;10.37;78.79
51603;BME280;37954;51.980;5.850;2023-02-13T08:43:13;103404.00;;;11.19;78.30
51603;BME280;37954;51.980;5.850;2023-02-13T08:47:25;103413.84;;;12.02;76.99
51603;BME280;37954;51.980;5.850;2023-02-13T08:51:36;103406.56;;;12.68;73.78
51603;BME280;37954;51.980;5.850;2023-02-13T08:55:52;103410.13;;;13.23;71.01
51603;BME280;37954;51.980;5.850;2023-02-13T09:00:05;103411.34;;;13.83;69.69
51603;BME280;37954;51.980;5.850;2023-02-13T09:04:17;103423.41;;;14.41;67.94
51603;BME280;37954;51.980;5.850;2023-02-13T09:08:29;103419.94;;;14.84;66.38
51603;BME280;37954;51.980;5.850;2023-02-13T09:12:41;103430.19;;;15.33;64.97
51603;BME280;37954;51.980;5.850;2023-02-13T09:16:53;103415.59;;;15.49;62.58
51603;BME280;37954;51.980;5.850;2023-02-13T09:21:10;103406.16;;;15.81;61.55
51603;BME280;37954;51.980;5.850;2023-02-13T09:25:23;103417.56;;;15.91;60.07
51603;BME280;37954;51.980;5.850;2023-02-13T09:29:34;103424.72;;;15.62;59.90
51603;BME280;37954;51.980;5.850;2023-02-13T09:33:47;103422.59;;;15.43;59.58
51603;BME280;37954;51.980;5.850;2023-02-13T09:37:59;103413.81;;;15.41;57.50
51603;BME280;37954;51.980;5.850;2023-02-13T09:42:19;103408.00;;;15.59;57.81
51603;BME280;37954;51.980;5.850;2023-02-13T09:46:36;103416.44;;;15.49;57.80
51603;BME280;37954;51.980;5.850;2023-02-13T09:50:49;103406.03;;;15.17;58.20
51603;BME280;37954;51.980;5.850;2023-02-13T09:55:02;103398.91;;;15.16;57.47
51603;BME280;37954;51.980;5.850;2023-02-13T09:59:51;103405.91;;;15.25;57.91
51603;BME280;37954;51.980;5.850;2023-02-13T10:13:30;103406.94;;;16.39;55.81
51603;BME280;37954;51.980;5.850;2023-02-13T10:17:58;103399.19;;;16.35;54.98
51603;BME280;37954;51.980;5.850;2023-02-13T10:22:16;103406.06;;;16.10;55.56
51603;BME280;37954;51.980;5.850;2023-02-13T10:26:32;103412.09;;;16.12;56.00
51603;BME280;37954;51.980;5.850;2023-02-13T10:31:02;103409.16;;;16.07;55.46
51603;BME280;37954;51.980;5.850;2023-02-13T10:39:30;103401.84;;;16.57;54.70
51603;BME280;37954;51.980;5.850;2023-02-13T10:48:40;103409.25;;;16.42;53.88
51603;BME280;37954;51.980;5.850;2023-02-13T11:06:10;103386.53;;;16.49;53.66
51603;BME280;37954;51.980;5.850;2023-02-13T11:10:25;103378.41;;;16.21;53.14
51603;BME280;37954;51.980;5.850;2023-02-13T11:14:39;103377.63;;;16.27;53.44
51603;BME280;37954;51.980;5.850;2023-02-13T11:19:03;103390.78;;;16.30;53.78
51603;BME280;37954;51.980;5.850;2023-02-13T11:27:42;103354.75;;;15.51;55.12
51603;BME280;37954;51.980;5.850;2023-02-13T11:36:31;103350.41;;;15.36;55.76
51603;BME280;37954;51.980;5.850;2023-02-13T11:40:45;103351.66;;;15.69;56.11
51603;BME280;37954;51.980;5.850;2023-02-13T11:45:03;103358.97;;;16.18;55.31
51603;BME280;37954;51.980;5.850;2023-02-13T11:49:24;103340.47;;;16.62;54.94
51603;BME280;37954;51.980;5.850;2023-02-13T11:53:39;103342.75;;;16.87;54.54
51603;BME280;37954;51.980;5.850;2023-02-13T12:02:29;103354.44;;;16.25;53.84
51603;BME280;37954;51.980;5.850;2023-02-13T12:06:58;103341.44;;;15.92;54.71
51603;BME280;37954;51.980;5.850;2023-02-13T12:11:33;103327.31;;;15.76;54.92
51603;BME280;37954;51.980;5.850;2023-02-13T12:15:49;103328.50;;;15.94;55.61
51603;BME280;37954;51.980;5.850;2023-02-13T12:20:12;103327.06;;;16.20;55.00
51603;BME280;37954;51.980;5.850;2023-02-13T12:24:47;103332.97;;;16.58;54.87
51603;BME280;37954;51.980;5.850;2023-02-13T12:30:05;103341.66;;;16.81;54.35
51603;BME280;37954;51.980;5.850;2023-02-13T12:43:31;103321.19;;;16.44;53.11
51603;BME280;37954;51.980;5.850;2023-02-13T13:10:37;103287.19;;;15.28;55.36
51603;BME280;37954;51.980;5.850;2023-02-13T13:20:03;103283.59;;;15.43;55.40
51603;BME280;37954;51.980;5.850;2023-02-13T13:29:22;103265.78;;;15.33;55.75
51603;BME280;37954;51.980;5.850;2023-02-13T13:33:35;103261.84;;;15.15;55.16
51603;BME280;37954;51.980;5.850;2023-02-13T13:38:10;103244.53;;;14.94;55.75
51603;BME280;37954;51.980;5.850;2023-02-13T13:42:43;103263.69;;;14.78;55.95
51603;BME280;37954;51.980;5.850;2023-02-13T13:47:04;103254.06;;;14.54;56.48
51603;BME280;37954;51.980;5.850;2023-02-13T13:51:27;103247.50;;;14.19;57.51
51603;BME280;37954;51.980;5.850;2023-02-13T14:04:37;103212.38;;;13.67;58.74
51603;BME280;37954;51.980;5.850;2023-02-13T14:08:59;103218.19;;;13.56;59.67
51603;BME280;37954;51.980;5.850;2023-02-13T14:13:29;103218.47;;;13.46;60.60
51603;BME280;37954;51.980;5.850;2023-02-13T14:26:36;103213.97;;;13.39;61.27
51603;BME280;37954;51.980;5.850;2023-02-13T14:30:49;103208.63;;;13.31;61.57
51603;BME280;37954;51.980;5.850;2023-02-13T14:35:16;103222.72;;;13.41;61.63
51603;BME280;37954;51.980;5.850;2023-02-13T14:39:32;103197.41;;;13.19;61.67
51603;BME280;37954;51.980;5.850;2023-02-13T14:43:49;103218.47;;;13.23;61.97
51603;BME280;37954;51.980;5.850;2023-02-13T14:48:06;103211.06;;;13.17;62.63
51603;BME280;37954;51.980;5.850;2023-02-13T14:52:28;103187.84;;;13.08;62.93
51603;BME280;37954;51.980;5.850;2023-02-13T14:56:45;103186.34;;;13.06;62.95
51603;BME280;37954;51.980;5.850;2023-02-13T15:05:32;103197.00;;;12.99;62.88
51603;BME280;37954;51.980;5.850;2023-02-13T15:09:54;103207.78;;;12.99;63.16
51603;BME280;37954;51.980;5.850;2023-02-13T15:18:41;103199.63;;;12.84;63.49
51603;BME280;37954;51.980;5.850;2023-02-13T15:22:56;103203.00;;;12.86;63.67
51603;BME280;37954;51.980;5.850;2023-02-13T15:27:26;103189.91;;;12.75;64.06
51603;BME280;37954;51.980;5.850;2023-02-13T15:31:38;103199.88;;;12.75;64.35
51603;BME280;37954;51.980;5.850;2023-02-13T15:35:55;103197.03;;;12.68;64.64
51603;BME280;37954;51.980;5.850;2023-02-13T15:40:36;103189.00;;;12.60;64.41
51603;BME280;37954;51.980;5.850;2023-02-13T15:44:48;103185.31;;;12.53;64.82
51603;BME280;37954;51.980;5.850;2023-02-13T15:49:07;103180.25;;;12.50;64.97
51603;BME280;37954;51.980;5.850;2023-02-13T15:53:20;103178.75;;;12.47;65.23
51603;BME280;37954;51.980;5.850;2023-02-13T15:57:32;103173.06;;;12.42;65.71
51603;BME280;37954;51.980;5.850;2023-02-13T16:01:44;103165.00;;;12.34;65.86
51603;BME280;37954;51.980;5.850;2023-02-13T16:05:56;103190.59;;;12.38;65.78
51603;BME280;37954;51.980;5.850;2023-02-13T16:10:17;103167.94;;;12.25;66.40
51603;BME280;37954;51.980;5.850;2023-02-13T16:14:31;103179.38;;;12.18;66.70
51603;BME280;37954;51.980;5.850;2023-02-13T16:18:44;103190.34;;;12.17;66.83
51603;BME280;37954;51.980;5.850;2023-02-13T16:23:25;103181.81;;;12.05;67.12
51603;BME280;37954;51.980;5.850;2023-02-13T16:27:42;103177.97;;;11.92;67.45
51603;BME280;37954;51.980;5.850;2023-02-13T16:32:04;103190.94;;;11.88;67.94
51603;BME280;37954;51.980;5.850;2023-02-13T16:36:25;103175.44;;;11.74;67.77
51603;BME280;37954;51.980;5.850;2023-02-13T16:40:42;103164.84;;;11.64;68.36
51603;BME280;37954;51.980;5.850;2023-02-13T16:45:20;103161.50;;;11.54;68.73
51603;BME280;37954;51.980;5.850;2023-02-13T16:49:34;103171.44;;;11.45;68.65
51603;BME280;37954;51.980;5.850;2023-02-13T16:53:46;103165.56;;;11.34;68.85
51603;BME280;37954;51.980;5.850;2023-02-13T16:58:03;103170.09;;;11.25;68.96
51603;BME280;37954;51.980;5.850;2023-02-13T17:02:35;103176.50;;;11.24;69.70
51603;BME280;37954;51.980;5.850;2023-02-13T17:06:54;103182.88;;;11.15;69.64
51603;BME280;37954;51.980;5.850;2023-02-13T17:11:07;103186.38;;;10.99;69.33
51603;BME280;37954;51.980;5.850;2023-02-13T17:15:29;103208.22;;;10.96;69.76
51603;BME280;37954;51.980;5.850;2023-02-13T17:19:41;103182.31;;;10.79;70.12
51603;BME280;37954;51.980;5.850;2023-02-13T17:23:53;103187.31;;;10.74;70.26
51603;BME280;37954;51.980;5.850;2023-02-13T17:32:22;103186.94;;;10.53;70.44
51603;BME280;37954;51.980;5.850;2023-02-13T17:36:35;103189.06;;;10.41;71.06
51603;BME280;37954;51.980;5.850;2023-02-13T17:40:47;103176.09;;;10.28;71.24
51603;BME280;37954;51.980;5.850;2023-02-13T17:44:59;103171.34;;;10.22;71.54
51603;BME280;37954;51.980;5.850;2023-02-13T17:49:11;103187.81;;;10.19;71.86
51603;BME280;37954;51.980;5.850;2023-02-13T17:57:35;103180.09;;;9.98;72.23
51603;BME280;37954;51.980;5.850;2023-02-13T18:01:47;103185.06;;;9.85;72.17
51603;BME280;37954;51.980;5.850;2023-02-13T18:05:59;103168.88;;;9.69;72.33
51603;BME280;37954;51.980;5.850;2023-02-13T18:10:13;103172.47;;;9.60;72.75
51603;BME280;37954;51.980;5.850;2023-02-13T18:14:28;103155.25;;;9.45;73.04
51603;BME280;37954;51.980;5.850;2023-02-13T18:18:40;103175.19;;;9.42;73.27
51603;BME280;37954;51.980;5.850;2023-02-13T18:22:52;103187.91;;;9.40;73.71
51603;BME280;37954;51.980;5.850;2023-02-13T18:27:04;103165.88;;;9.28;74.07
51603;BME280;37954;51.980;5.850;2023-02-13T18:31:18;103184.94;;;9.25;74.23
51603;BME280;37954;51.980;5.850;2023-02-13T18:35:30;103175.00;;;9.18;74.05
51603;BME280;37954;51.980;5.850;2023-02-13T18:39:43;103175.00;;;9.18;74.61
51603;BME280;37954;51.980;5.850;2023-02-13T18:43:56;103180.19;;;9.19;75.17
51603;BME280;37954;51.980;5.850;2023-02-13T18:48:08;103190.25;;;9.17;76.02
51603;BME280;37954;51.980;5.850;2023-02-13T18:52:20;103169.84;;;9.06;75.79
51603;BME280;37954;51.980;5.850;2023-02-13T18:56:31;103164.44;;;8.98;75.84
51603;BME280;37954;51.980;5.850;2023-02-13T19:00:43;103163.59;;;8.98;76.29
51603;BME280;37954;51.980;5.850;2023-02-13T19:04:54;103181.03;;;9.02;76.68
51603;BME280;37954;51.980;5.850;2023-02-13T19:09:07;103152.72;;;8.82;76.51
51603;BME280;37954;51.980;5.850;2023-02-13T19:13:18;103151.31;;;8.78;77.16
51603;BME280;37954;51.980;5.850;2023-02-13T19:17:30;103155.22;;;8.83;77.38
51603;BME280;37954;51.980;5.850;2023-02-13T19:21:42;103127.72;;;8.63;77.02
51603;BME280;37954;51.980;5.850;2023-02-13T19:25:54;103169.63;;;8.82;77.04
51603;BME280;37954;51.980;5.850;2023-02-13T19:30:06;103164.72;;;8.78;76.83
51603;BME280;37954;51.980;5.850;2023-02-13T19:34:20;103163.94;;;8.67;77.05
51603;BME280;37954;51.980;5.850;2023-02-13T19:38:31;103153.00;;;8.61;77.40
51603;BME280;37954;51.980;5.850;2023-02-13T19:42:43;103160.19;;;8.60;77.47
51603;BME280;37954;51.980;5.850;2023-02-13T19:46:55;103159.63;;;8.57;77.68
51603;BME280;37954;51.980;5.850;2023-02-13T19:51:07;103167.38;;;8.60;77.84
51603;BME280;37954;51.980;5.850;2023-02-13T19:55:19;103161.47;;;8.56;78.28
51603;BME280;37954;51.980;5.850;2023-02-13T19:59:35;103172.03;;;8.58;78.19
51603;BME280;37954;51.980;5.850;2023-02-13T20:03:47;103152.66;;;8.46;78.27
51603;BME280;37954;51.980;5.850;2023-02-13T20:07:59;103171.78;;;8.51;78.15
51603;BME280;37954;51.980;5.850;2023-02-13T20:12:11;103160.28;;;8.41;78.47
51603;BME280;37954;51.980;5.850;2023-02-13T20:16:22;103165.78;;;8.40;78.95
51603;BME280;37954;51.980;5.850;2023-02-13T20:20:38;103171.44;;;8.36;78.80
51603;BME280;37954;51.980;5.850;2023-02-13T20:24:50;103171.16;;;8.40;78.86
51603;BME280;37954;51.980;5.850;2023-02-13T20:29:01;103163.16;;;8.30;78.83
51603;BME280;37954;51.980;5.850;2023-02-13T20:33:13;103158.38;;;8.24;78.87
51603;BME280;37954;51.980;5.850;2023-02-13T20:37:25;103173.44;;;8.25;79.01
51603;BME280;37954;51.980;5.850;2023-02-13T20:41:36;103160.09;;;8.15;78.99
51603;BME280;37954;51.980;5.850;2023-02-13T20:45:48;103182.06;;;8.19;79.24
51603;BME280;37954;51.980;5.850;2023-02-13T20:50:01;103160.97;;;8.06;79.42
51603;BME280;37954;51.980;5.850;2023-02-13T20:54:13;103184.78;;;8.09;79.74
51603;BME280;37954;51.980;5.850;2023-02-13T20:58:25;103175.34;;;8.05;80.17
51603;BME280;37954;51.980;5.850;2023-02-13T21:02:36;103171.19;;;7.93;80.18
51603;BME280;37954;51.980;5.850;2023-02-13T21:06:48;103172.31;;;7.90;80.33
51603;BME280;37954;51.980;5.850;2023-02-13T21:11:01;103188.31;;;8.00;80.59
51603;BME280;37954;51.980;5.850;2023-02-13T21:15:13;103171.47;;;7.90;80.64
51603;BME280;37954;51.980;5.850;2023-02-13T21:19:24;103169.22;;;7.85;80.55
51603;BME280;37954;51.980;5.850;2023-02-13T21:23:36;103180.34;;;7.81;80.70
51603;BME280;37954;51.980;5.850;2023-02-13T21:27:48;103190.38;;;7.79;80.70
51603;BME280;37954;51.980;5.850;2023-02-13T21:32:01;103198.69;;;7.76;80.62
51603;BME280;37954;51.980;5.850;2023-02-13T21:36:13;103169.56;;;7.63;80.98
51603;BME280;37954;51.980;5.850;2023-02-13T21:40:24;103179.59;;;7.61;81.06
51603;BME280;37954;51.980;5.850;2023-02-13T21:44:36;103174.94;;;7.53;81.10
51603;BME280;37954;51.980;5.850;2023-02-13T21:48:52;103185.50;;;7.55;80.95
51603;BME280;37954;51.980;5.850;2023-02-13T21:53:04;103173.66;;;7.48;81.42
51603;BME280;37954;51.980;5.850;2023-02-13T21:57:15;103165.09;;;7.34;81.12
51603;BME280;37954;51.980;5.850;2023-02-13T22:01:30;103150.06;;;7.24;81.26
51603;BME280;37954;51.980;5.850;2023-02-13T22:05:46;103138.38;;;7.15;81.22
51603;BME280;37954;51.980;5.850;2023-02-13T22:09:58;103154.72;;;7.22;81.62
51603;BME280;37954;51.980;5.850;2023-02-13T22:14:12;103152.72;;;7.14;81.71
51603;BME280;37954;51.980;5.850;2023-02-13T22:18:28;103168.78;;;7.24;81.70
51603;BME280;37954;51.980;5.850;2023-02-13T22:22:40;103151.88;;;7.14;81.82
51603;BME280;37954;51.980;5.850;2023-02-13T22:26:52;103153.28;;;7.18;82.00
51603;BME280;37954;51.980;5.850;2023-02-13T22:31:06;103155.84;;;7.10;82.13
51603;BME280;37954;51.980;5.850;2023-02-13T22:35:18;103160.34;;;7.09;82.29
51603;BME280;37954;51.980;5.850;2023-02-13T22:39:30;103145.44;;;7.07;82.27
51603;BME280;37954;51.980;5.850;2023-02-13T22:43:42;103126.84;;;6.86;82.13
51603;BME280;37954;51.980;5.850;2023-02-13T22:47:54;103143.03;;;6.94;82.33
51603;BME280;37954;51.980;5.850;2023-02-13T22:52:05;103129.94;;;6.81;82.63
51603;BME280;37954;51.980;5.850;2023-02-13T22:56:17;103144.72;;;6.85;82.24
51603;BME280;37954;51.980;5.850;2023-02-13T23:00:29;103147.81;;;6.90;82.80
51603;BME280;37954;51.980;5.850;2023-02-13T23:04:41;103151.63;;;6.88;82.89
51603;BME280;37954;51.980;5.850;2023-02-13T23:08:53;103117.97;;;6.66;82.96
51603;BME280;37954;51.980;5.850;2023-02-13T23:13:06;103133.59;;;6.71;83.17
51603;BME280;37954;51.980;5.850;2023-02-13T23:17:18;103139.91;;;6.70;82.98
51603;BME280;37954;51.980;5.850;2023-02-13T23:21:48;103134.00;;;6.66;82.94
51603;BME280;37954;51.980;5.850;2023-02-13T23:26:05;103145.53;;;6.67;83.00
51603;BME280;37954;51.980;5.850;2023-02-13T23:30:17;103143.72;;;6.67;83.01
51603;BME280;37954;51.980;5.850;2023-02-13T23:34:29;103136.38;;;6.59;83.21
51603;BME280;37954;51.980;5.850;2023-02-13T23:38:41;103128.34;;;6.50;83.58
51603;BME280;37954;51.980;5.850;2023-02-13T23:42:55;103130.59;;;6.45;83.31
51603;BME280;37954;51.980;5.850;2023-02-13T23:47:06;103142.97;;;6.46;83.80
51603;BME280;37954;51.980;5.850;2023-02-13T23:51:18;103128.63;;;6.37;83.60
51603;BME280;37954;51.980;5.850;2023-02-13T23:55:31;103126.88;;;6.26;83.51
51603;BME280;37954;51.980;5.850;2023-02-13T23:59:43;103129.81;;;6.23;83.30
